sensor_id;sensor_type;location;lat;lon;timestamp;pressure;altitude;pressure_sealevel;temperature;humidity
18813;BME280;9534;51.140;6.296;2023-04-05T00:02:42;101339.00;;;0.92;100.00
18813;BME280;9534;51.140;6.296;2023-04-05T00:06:47;101342.66;;;0.91;100.00
18813;BME280;9534;51.140;6.296;2023-04-05T00:10:53;101337.09;;;0.83;100.00
18813;BME280;9534;51.140;6.296;2023-04-05T00:14:57;101326.50;;;0.91;100.00
18813;BME280;9534;51.140;6.296;2023-04-05T00:19:00;101318.34;;;0.81;100.00
18813;BME280;9534;51.140;6.296;2023-04-05T00:23:04;101319.00;;;0.74;100.00
18813;BME280;9534;51.140;6.296;2023-04-05T00:27:07;101322.53;;;0.54;100.00
18813;BME280;9534;51.140;6.296;2023-04-05T00:31:11;101330.47;;;0.55;100.00
18813;BME280;9534;51.140;6.296;2023-04-05T00:35:14;101329.63;;;0.55;100.00
18813;BME280;9534;51.140;6.296;2023-04-05T00:39:19;101328.19;;;0.51;100.00
18813;BME280;9534;51.140;6.296;2023-04-05T00:43:22;101320.78;;;0.43;100.00
18813;BME280;9534;51.140;6.296;2023-04-05T00:47:25;101321.59;;;0.44;100.00
18813;BME280;9534;51.140;6.296;2023-04-05T00:51:29;101317.50;;;0.29;100.00
18813;BME280;9534;51.140;6.296;2023-04-05T00:55:35;101304.34;;;0.15;100.00
18813;BME280;9534;51.140;6.296;2023-04-05T00:59:38;101313.66;;;0.11;100.00
18813;BME280;9534;51.140;6.296;2023-04-05T01:03:46;101311.03;;;0.00;100.00
18813;BME280;9534;51.140;6.296;2023-04-05T01:07:58;101304.06;;;-0.02;100.00
18813;BME280;9534;51.140;6.296;2023-04-05T01:12:07;101314.72;;;-0.12;100.00
18813;BME280;9534;51.140;6.296;2023-04-05T01:16:11;101308.44;;;-0.01;100.00
18813;BME280;9534;51.140;6.296;2023-04-05T01:20:15;101309.81;;;-0.07;100.00
18813;BME280;9534;51.140;6.296;2023-04-05T01:24:30;101309.81;;;-0.07;100.00
18813;BME280;9534;51.140;6.296;2023-04-05T01:33:22;101307.41;;;-0.21;100.00
18813;BME280;9534;51.140;6.296;2023-04-05T01:37:31;101310.72;;;-0.28;100.00
18813;BME280;9534;51.140;6.296;2023-04-05T01:41:37;101316.25;;;-0.41;100.00
18813;BME280;9534;51.140;6.296;2023-04-05T01:45:41;101303.31;;;-0.47;100.00
18813;BME280;9534;51.140;6.296;2023-04-05T01:49:45;101295.38;;;-0.48;100.00
18813;BME280;9534;51.140;6.296;2023-04-05T01:53:48;101296.69;;;-0.43;100.00
18813;BME280;9534;51.140;6.296;2023-04-05T01:57:53;101298.16;;;-0.39;100.00
18813;BME280;9534;51.140;6.296;2023-04-05T02:01:57;101300.13;;;-0.41;100.00
18813;BME280;9534;51.140;6.296;2023-04-05T02:06:03;101301.09;;;-0.53;100.00
18813;BME280;9534;51.140;6.296;2023-04-05T02:10:07;101314.78;;;-0.45;100.00
18813;BME280;9534;51.140;6.296;2023-04-05T02:14:12;101303.06;;;-0.55;100.00
18813;BME280;9534;51.140;6.296;2023-04-05T02:18:16;101303.56;;;-0.61;100.00
18813;BME280;9534;51.140;6.296;2023-04-05T02:22:24;101307.47;;;-0.54;100.00
18813;BME280;9534;51.140;6.296;2023-04-05T02:26:27;101305.50;;;-0.63;100.00
18813;BME280;9534;51.140;6.296;2023-04-05T02:30:33;101301.59;;;-0.48;100.00
18813;BME280;9534;51.140;6.296;2023-04-05T02:34:37;101305.75;;;-0.55;100.00
18813;BME280;9534;51.140;6.296;2023-04-05T02:38:43;101301.84;;;-0.51;100.00
18813;BME280;9534;51.140;6.296;2023-04-05T02:42:46;101303.56;;;-0.61;100.00
18813;BME280;9534;51.140;6.296;2023-04-05T02:46:51;101298.44;;;-0.64;100.00
18813;BME280;9534;51.140;6.296;2023-04-05T02:51:01;101299.16;;;-0.73;100.00
18813;BME280;9534;51.140;6.296;2023-04-05T02:55:06;101298.81;;;-0.79;100.00
18813;BME280;9534;51.140;6.296;2023-04-05T02:59:10;101293.81;;;-0.84;100.00
18813;BME280;9534;51.140;6.296;2023-04-05T03:03:16;101294.31;;;-0.79;100.00
18813;BME280;9534;51.140;6.296;2023-04-05T03:07:20;101300.53;;;-0.78;100.00
18813;BME280;9534;51.140;6.296;2023-04-05T03:11:28;101296.13;;;-0.79;100.00
18813;BME280;9534;51.140;6.296;2023-04-05T03:15:34;101290.41;;;-0.86;100.00
18813;BME280;9534;51.140;6.296;2023-04-05T03:19:43;101285.28;;;-0.89;100.00
18813;BME280;9534;51.140;6.296;2023-04-05T03:23:52;101275.84;;;-0.94;100.00
18813;BME280;9534;51.140;6.296;2023-04-05T03:28:04;101275.59;;;-1.02;100.00
18813;BME280;9534;51.140;6.296;2023-04-05T03:32:08;101276.22;;;-0.99;100.00
18813;BME280;9534;51.140;6.296;2023-04-05T03:36:17;101284.03;;;-1.07;100.00
18813;BME280;9534;51.140;6.296;2023-04-05T03:40:26;101275.25;;;-1.09;100.00
18813;BME280;9534;51.140;6.296;2023-04-05T03:44:31;101272.66;;;-1.10;100.00
18813;BME280;9534;51.140;6.296;2023-04-05T03:48:34;101266.81;;;-1.26;100.00
18813;BME280;9534;51.140;6.296;2023-04-05T03:52:37;101278.13;;;-1.33;100.00
18813;BME280;9534;51.140;6.296;2023-04-05T03:56:40;101279.81;;;-1.43;100.00
18813;BME280;9534;51.140;6.296;2023-04-05T04:00:49;101268.66;;;-1.15;100.00
18813;BME280;9534;51.140;6.296;2023-04-05T04:04:56;101262.16;;;-1.35;100.00
18813;BME280;9534;51.140;6.296;2023-04-05T04:09:00;101267.13;;;-1.41;100.00
18813;BME280;9534;51.140;6.296;2023-04-05T04:13:04;101260.53;;;-1.48;100.00
18813;BME280;9534;51.140;6.296;2023-04-05T04:17:09;101267.13;;;-1.52;100.00
18813;BME280;9534;51.140;6.296;2023-04-05T04:21:33;101259.94;;;-1.52;100.00
18813;BME280;9534;51.140;6.296;2023-04-05T04:26:09;101252.84;;;-1.53;100.00
18813;BME280;9534;51.140;6.296;2023-04-05T04:30:33;101269.09;;;-1.43;100.00
18813;BME280;9534;51.140;6.296;2023-04-05T04:35:13;101262.25;;;-1.47;100.00
18813;BME280;9534;51.140;6.296;2023-04-05T04:39:31;101257.38;;;-1.42;100.00
18813;BME280;9534;51.140;6.296;2023-04-05T04:43:54;101268.59;;;-1.48;100.00
18813;BME280;9534;51.140;6.296;2023-04-05T04:48:11;101263.84;;;-1.45;100.00
18813;BME280;9534;51.140;6.296;2023-04-05T04:52:46;101260.66;;;-1.61;100.00
18813;BME280;9534;51.140;6.296;2023-04-05T04:56:49;101269.53;;;-1.71;100.00
18813;BME280;9534;51.140;6.296;2023-04-05T05:00:52;101267.59;;;-1.69;100.00
18813;BME280;9534;51.140;6.296;2023-04-05T05:04:57;101265.63;;;-1.56;100.00
18813;BME280;9534;51.140;6.296;2023-04-05T05:09:02;101262.47;;;-1.50;100.00
18813;BME280;9534;51.140;6.296;2023-04-05T05:13:11;101275.16;;;-1.52;100.00
18813;BME280;9534;51.140;6.296;2023-04-05T05:17:14;101270.66;;;-1.52;100.00
18813;BME280;9534;51.140;6.296;2023-04-05T05:21:18;101261.88;;;-1.54;100.00
18813;BME280;9534;51.140;6.296;2023-04-05T05:25:30;101262.84;;;-1.55;100.00
18813;BME280;9534;51.140;6.296;2023-04-05T05:29:33;101266.78;;;-1.48;100.00
18813;BME280;9534;51.140;6.296;2023-04-05T05:33:36;101274.94;;;-1.49;100.00
18813;BME280;9534;51.140;6.296;2023-04-05T05:37:39;101276.16;;;-1.42;100.00
18813;BME280;9534;51.140;6.296;2023-04-05T05:41:44;101266.44;;;-1.32;100.00
18813;BME280;9534;51.140;6.296;2023-04-05T05:45:47;101265.22;;;-1.28;100.00
18813;BME280;9534;51.140;6.296;2023-04-05T05:49:51;101263.28;;;-1.15;100.00
18813;BME280;9534;51.140;6.296;2023-04-05T05:53:54;101267.06;;;-1.07;100.00
18813;BME280;9534;51.140;6.296;2023-04-05T05:57:58;101268.91;;;-0.97;100.00
18813;BME280;9534;51.140;6.296;2023-04-05T06:02:01;101270.13;;;-0.90;100.00
18813;BME280;9534;51.140;6.296;2023-04-05T06:06:05;101268.28;;;-0.78;100.00
18813;BME280;9534;51.140;6.296;2023-04-05T06:10:12;101272.56;;;-0.76;100.00
18813;BME280;9534;51.140;6.296;2023-04-05T06:14:17;101270.31;;;-0.49;100.00
18813;BME280;9534;51.140;6.296;2023-04-05T06:18:20;101269.31;;;-0.37;100.00
18813;BME280;9534;51.140;6.296;2023-04-05T06:22:23;101275.59;;;0.47;100.00
18813;BME280;9534;51.140;6.296;2023-04-05T06:26:26;101263.69;;;0.29;100.00
18813;BME280;9534;51.140;6.296;2023-04-05T06:30:32;101268.53;;;0.35;100.00
18813;BME280;9534;51.140;6.296;2023-04-05T06:34:36;101274.06;;;0.54;100.00
18813;BME280;9534;51.140;6.296;2023-04-05T06:38:39;101269.81;;;0.72;100.00
18813;BME280;9534;51.140;6.296;2023-04-05T06:42:43;101262.38;;;0.85;100.00
18813;BME280;9534;51.140;6.296;2023-04-05T06:46:52;101265.03;;;1.05;100.00
18813;BME280;9534;51.140;6.296;2023-04-05T06:50:56;101252.78;;;1.70;100.00
18813;BME280;9534;51.140;6.296;2023-04-05T06:54:59;101240.59;;;2.23;100.00
18813;BME280;9534;51.140;6.296;2023-04-05T06:59:03;101226.91;;;2.53;100.00
18813;BME280;9534;51.140;6.296;2023-04-05T07:03:08;101215.28;;;2.98;100.00
18813;BME280;9534;51.140;6.296;2023-04-05T07:07:11;101203.81;;;3.14;100.00
18813;BME280;9534;51.140;6.296;2023-04-05T07:11:15;101194.59;;;3.34;100.00
18813;BME280;9534;51.140;6.296;2023-04-05T07:15:18;101199.25;;;3.41;100.00
18813;BME280;9534;51.140;6.296;2023-04-05T07:19:22;101199.94;;;3.70;100.00
18813;BME280;9534;51.140;6.296;2023-04-05T07:23:25;101190.53;;;3.65;100.00
18813;BME280;9534;51.140;6.296;2023-04-05T07:27:29;101197.13;;;3.97;100.00
18813;BME280;9534;51.140;6.296;2023-04-05T07:31:32;101203.88;;;4.10;100.00
18813;BME280;9534;51.140;6.296;2023-04-05T07:35:37;101192.03;;;4.29;100.00
18813;BME280;9534;51.140;6.296;2023-04-05T07:39:40;101200.63;;;4.67;100.00
18813;BME280;9534;51.140;6.296;2023-04-05T07:43:43;101202.53;;;5.00;100.00
18813;BME280;9534;51.140;6.296;2023-04-05T07:47:47;101205.72;;;4.95;100.00
18813;BME280;9534;51.140;6.296;2023-04-05T07:51:54;101199.03;;;5.57;100.00
18813;BME280;9534;51.140;6.296;2023-04-05T07:55:57;101207.34;;;6.28;100.00
18813;BME280;9534;51.140;6.296;2023-04-05T08:00:02;101202.88;;;7.84;100.00
18813;BME280;9534;51.140;6.296;2023-04-05T08:04:13;101219.34;;;9.17;100.00
18813;BME280;9534;51.140;6.296;2023-04-05T08:08:18;101213.00;;;9.74;100.00
18813;BME280;9534;51.140;6.296;2023-04-05T08:12:21;101210.38;;;9.66;100.00
18813;BME280;9534;51.140;6.296;2023-04-05T08:16:25;101215.34;;;9.77;100.00
18813;BME280;9534;51.140;6.296;2023-04-05T08:20:28;101214.06;;;10.65;100.00
18813;BME280;9534;51.140;6.296;2023-04-05T08:24:33;101216.03;;;10.98;100.00
18813;BME280;9534;51.140;6.296;2023-04-05T08:28:36;101217.44;;;11.21;100.00
18813;BME280;9534;51.140;6.296;2023-04-05T08:32:39;101218.09;;;10.48;100.00
18813;BME280;9534;51.140;6.296;2023-04-05T08:36:42;101222.63;;;11.37;100.00
18813;BME280;9534;51.140;6.296;2023-04-05T08:40:51;101220.19;;;11.21;100.00
18813;BME280;9534;51.140;6.296;2023-04-05T08:44:56;101214.50;;;11.84;100.00
18813;BME280;9534;51.140;6.296;2023-04-05T08:49:03;101211.31;;;10.65;100.00
18813;BME280;9534;51.140;6.296;2023-04-05T08:53:08;101209.47;;;11.54;100.00
18813;BME280;9534;51.140;6.296;2023-04-05T08:57:13;101206.44;;;11.76;100.00
18813;BME280;9534;51.140;6.296;2023-04-05T09:01:17;101212.16;;;12.54;100.00
18813;BME280;9534;51.140;6.296;2023-04-05T09:05:22;101209.66;;;12.85;100.00
18813;BME280;9534;51.140;6.296;2023-04-05T09:09:30;101211.56;;;11.92;100.00
18813;BME280;9534;51.140;6.296;2023-04-05T09:13:37;101212.06;;;11.34;100.00
18813;BME280;9534;51.140;6.296;2023-04-05T09:17:40;101205.16;;;11.11;100.00
18813;BME280;9534;51.140;6.296;2023-04-05T09:22:06;101198.44;;;11.47;100.00
18813;BME280;9534;51.140;6.296;2023-04-05T09:26:17;101202.59;;;11.64;100.00
18813;BME280;9534;51.140;6.296;2023-04-05T09:30:25;101198.75;;;10.70;100.00
18813;BME280;9534;51.140;6.296;2023-04-05T09:34:29;101209.09;;;12.10;100.00
18813;BME280;9534;51.140;6.296;2023-04-05T09:38:43;101212.84;;;13.08;100.00
18813;BME280;9534;51.140;6.296;2023-04-05T09:42:47;101204.34;;;12.64;100.00
18813;BME280;9534;51.140;6.296;2023-04-05T09:46:52;101203.28;;;14.06;93.99
18813;BME280;9534;51.140;6.296;2023-04-05T09:51:03;101193.66;;;14.15;95.51
18813;BME280;9534;51.140;6.296;2023-04-05T09:55:25;101197.72;;;13.68;91.94
18813;BME280;9534;51.140;6.296;2023-04-05T09:59:28;101202.44;;;12.58;98.25
18813;BME280;9534;51.140;6.296;2023-04-05T10:03:45;101196.19;;;12.04;100.00
18813;BME280;9534;51.140;6.296;2023-04-05T10:07:49;101192.91;;;11.68;100.00
18813;BME280;9534;51.140;6.296;2023-04-05T10:11:52;101188.09;;;13.08;88.32
18813;BME280;9534;51.140;6.296;2023-04-05T10:15:56;101179.59;;;13.42;87.62
18813;BME280;9534;51.140;6.296;2023-04-05T10:20:09;101180.97;;;14.14;83.21
18813;BME280;9534;51.140;6.296;2023-04-05T10:24:19;101174.97;;;12.64;87.13
18813;BME280;9534;51.140;6.296;2023-04-05T10:28:29;101174.56;;;12.48;86.63
18813;BME280;9534;51.140;6.296;2023-04-05T10:32:45;101163.56;;;12.93;86.60
18813;BME280;9534;51.140;6.296;2023-04-05T10:36:57;101172.03;;;13.18;84.65
18813;BME280;9534;51.140;6.296;2023-04-05T10:41:09;101166.75;;;13.86;75.04
18813;BME280;9534;51.140;6.296;2023-04-05T10:45:15;101169.38;;;14.49;69.20
18813;BME280;9534;51.140;6.296;2023-04-05T10:49:21;101169.75;;;13.71;72.73
18813;BME280;9534;51.140;6.296;2023-04-05T10:53:34;101166.66;;;15.16;64.90
18813;BME280;9534;51.140;6.296;2023-04-05T10:57:39;101164.34;;;13.46;70.41
18813;BME280;9534;51.140;6.296;2023-04-05T11:01:44;101153.19;;;13.28;71.20
18813;BME280;9534;51.140;6.296;2023-04-05T11:05:48;101144.91;;;13.41;71.86
18813;BME280;9534;51.140;6.296;2023-04-05T11:09:54;101144.00;;;13.53;69.76
18813;BME280;9534;51.140;6.296;2023-04-05T11:13:58;101136.72;;;13.71;74.61
18813;BME280;9534;51.140;6.296;2023-04-05T11:18:06;101131.94;;;13.60;76.51
18813;BME280;9534;51.140;6.296;2023-04-05T11:22:10;101134.78;;;14.22;73.37
18813;BME280;9534;51.140;6.296;2023-04-05T11:26:15;101131.47;;;13.70;69.94
18813;BME280;9534;51.140;6.296;2023-04-05T11:30:47;101127.56;;;13.47;75.46
18813;BME280;9534;51.140;6.296;2023-04-05T11:35:04;101130.81;;;14.49;64.65
18813;BME280;9534;51.140;6.296;2023-04-05T11:39:26;101123.03;;;14.40;66.63
18813;BME280;9534;51.140;6.296;2023-04-05T11:43:31;101115.16;;;13.75;64.27
18813;BME280;9534;51.140;6.296;2023-04-05T11:47:36;101105.97;;;14.25;67.13
18813;BME280;9534;51.140;6.296;2023-04-05T11:51:39;101111.19;;;16.36;55.20
18813;BME280;9534;51.140;6.296;2023-04-05T11:55:45;101095.56;;;15.90;53.83
18813;BME280;9534;51.140;6.296;2023-04-05T11:59:51;101090.66;;;12.97;63.82
18813;BME280;9534;51.140;6.296;2023-04-05T12:03:55;101088.13;;;13.09;70.52
18813;BME280;9534;51.140;6.296;2023-04-05T12:07:59;101077.97;;;15.19;61.23
18813;BME280;9534;51.140;6.296;2023-04-05T12:12:02;101078.19;;;13.95;66.83
18813;BME280;9534;51.140;6.296;2023-04-05T12:16:07;101080.84;;;13.77;63.65
18813;BME280;9534;51.140;6.296;2023-04-05T12:20:12;101070.03;;;13.82;62.38
18813;BME280;9534;51.140;6.296;2023-04-05T12:24:16;101075.22;;;12.90;68.08
18813;BME280;9534;51.140;6.296;2023-04-05T12:28:19;101057.00;;;13.28;70.18
18813;BME280;9534;51.140;6.296;2023-04-05T12:32:24;101061.03;;;14.31;65.81
18813;BME280;9534;51.140;6.296;2023-04-05T12:36:27;101049.25;;;12.86;71.75
18813;BME280;9534;51.140;6.296;2023-04-05T12:40:33;101056.38;;;13.69;65.26
18813;BME280;9534;51.140;6.296;2023-04-05T12:44:36;101050.31;;;15.61;59.64
18813;BME280;9534;51.140;6.296;2023-04-05T12:48:41;101055.63;;;13.43;70.14
18813;BME280;9534;51.140;6.296;2023-04-05T12:52:54;101047.84;;;12.51;67.95
18813;BME280;9534;51.140;6.296;2023-04-05T12:56:57;101032.88;;;13.67;70.61
18813;BME280;9534;51.140;6.296;2023-04-05T13:01:05;101042.28;;;14.46;61.91
18813;BME280;9534;51.140;6.296;2023-04-05T13:05:10;101033.38;;;13.88;63.35
18813;BME280;9534;51.140;6.296;2023-04-05T13:09:13;101034.38;;;14.31;61.90
18813;BME280;9534;51.140;6.296;2023-04-05T13:13:17;101034.81;;;13.66;58.35
18813;BME280;9534;51.140;6.296;2023-04-05T13:17:21;101018.78;;;13.57;57.82
18813;BME280;9534;51.140;6.296;2023-04-05T13:21:26;101012.81;;;15.72;52.65
18813;BME280;9534;51.140;6.296;2023-04-05T13:25:29;101017.97;;;15.68;50.86
18813;BME280;9534;51.140;6.296;2023-04-05T13:29:32;101015.59;;;15.54;54.25
18813;BME280;9534;51.140;6.296;2023-04-05T13:33:35;101018.16;;;16.48;52.60
18813;BME280;9534;51.140;6.296;2023-04-05T13:37:40;101017.28;;;15.55;50.51
18813;BME280;9534;51.140;6.296;2023-04-05T13:41:43;101005.22;;;15.02;52.55
18813;BME280;9534;51.140;6.296;2023-04-05T13:45:46;101000.63;;;15.91;50.71
18813;BME280;9534;51.140;6.296;2023-04-05T13:49:49;100996.00;;;14.05;51.45
18813;BME280;9534;51.140;6.296;2023-04-05T13:53:54;100993.25;;;13.74;52.31
18813;BME280;9534;51.140;6.296;2023-04-05T13:57:57;100987.50;;;16.38;47.22
18813;BME280;9534;51.140;6.296;2023-04-05T14:02:00;100982.31;;;16.30;46.22
18813;BME280;9534;51.140;6.296;2023-04-05T14:06:03;100975.03;;;15.72;48.74
18813;BME280;9534;51.140;6.296;2023-04-05T14:10:09;100980.97;;;15.99;45.11
18813;BME280;9534;51.140;6.296;2023-04-05T14:14:13;100969.41;;;15.49;47.91
18813;BME280;9534;51.140;6.296;2023-04-05T14:18:16;100970.63;;;15.53;48.28
18813;BME280;9534;51.140;6.296;2023-04-05T14:22:19;100962.50;;;15.11;48.81
18813;BME280;9534;51.140;6.296;2023-04-05T14:26:26;100967.72;;;16.64;44.59
18813;BME280;9534;51.140;6.296;2023-04-05T14:30:30;100963.78;;;17.39;41.47
18813;BME280;9534;51.140;6.296;2023-04-05T14:34:34;100946.31;;;15.62;44.93
18813;BME280;9534;51.140;6.296;2023-04-05T14:38:37;100951.75;;;15.39;47.80
18813;BME280;9534;51.140;6.296;2023-04-05T14:42:41;100941.47;;;15.98;45.25
18813;BME280;9534;51.140;6.296;2023-04-05T14:46:50;100938.31;;;14.95;47.77
18813;BME280;9534;51.140;6.296;2023-04-05T14:50:54;100939.88;;;15.38;50.36
18813;BME280;9534;51.140;6.296;2023-04-05T14:54:57;100926.00;;;14.62;49.19
18813;BME280;9534;51.140;6.296;2023-04-05T14:59:02;100930.97;;;14.35;51.31
18813;BME280;9534;51.140;6.296;2023-04-05T15:03:05;100926.31;;;14.72;51.73
18813;BME280;9534;51.140;6.296;2023-04-05T15:07:08;100928.81;;;14.73;52.76
18813;BME280;9534;51.140;6.296;2023-04-05T15:11:12;100921.63;;;14.90;49.40
18813;BME280;9534;51.140;6.296;2023-04-05T15:15:16;100922.53;;;15.61;47.32
18813;BME280;9534;51.140;6.296;2023-04-05T15:19:20;100924.91;;;15.46;47.68
18813;BME280;9534;51.140;6.296;2023-04-05T15:23:23;100929.81;;;15.44;48.93
18813;BME280;9534;51.140;6.296;2023-04-05T15:27:26;100915.41;;;16.28;48.30
18813;BME280;9534;51.140;6.296;2023-04-05T15:31:32;100912.84;;;15.29;49.92
18813;BME280;9534;51.140;6.296;2023-04-05T15:35:35;100912.81;;;17.07;46.46
18813;BME280;9534;51.140;6.296;2023-04-05T15:39:38;100907.84;;;16.81;43.75
18813;BME280;9534;51.140;6.296;2023-04-05T15:43:42;100911.25;;;17.67;42.21
18813;BME280;9534;51.140;6.296;2023-04-05T15:47:46;100901.84;;;18.17;41.99
18813;BME280;9534;51.140;6.296;2023-04-05T15:51:50;100902.22;;;15.96;46.50
18813;BME280;9534;51.140;6.296;2023-04-05T15:55:53;100887.13;;;16.21;45.01
18813;BME280;9534;51.140;6.296;2023-04-05T15:59:56;100894.78;;;17.05;45.34
18813;BME280;9534;51.140;6.296;2023-04-05T16:04:01;100894.28;;;18.13;41.88
18813;BME280;9534;51.140;6.296;2023-04-05T16:08:05;100886.13;;;14.64;47.87
18813;BME280;9534;51.140;6.296;2023-04-05T16:12:08;100883.63;;;13.78;50.84
18813;BME280;9534;51.140;6.296;2023-04-05T16:16:12;100880.28;;;14.18;53.76
18813;BME280;9534;51.140;6.296;2023-04-05T16:20:26;100881.84;;;14.68;52.75
18813;BME280;9534;51.140;6.296;2023-04-05T16:24:29;100880.16;;;14.67;50.90
18813;BME280;9534;51.140;6.296;2023-04-05T16:28:34;100878.75;;;13.56;54.27
18813;BME280;9534;51.140;6.296;2023-04-05T16:32:37;100871.50;;;14.28;51.42
18813;BME280;9534;51.140;6.296;2023-04-05T16:36:41;100877.25;;;13.59;54.92
18813;BME280;9534;51.140;6.296;2023-04-05T16:40:44;100868.09;;;13.65;55.71
18813;BME280;9534;51.140;6.296;2023-04-05T16:44:48;100871.50;;;13.85;54.12
18813;BME280;9534;51.140;6.296;2023-04-05T16:48:51;100872.03;;;13.52;56.62
18813;BME280;9534;51.140;6.296;2023-04-05T16:52:55;100869.22;;;14.61;55.07
18813;BME280;9534;51.140;6.296;2023-04-05T16:56:59;100866.63;;;14.30;52.06
18813;BME280;9534;51.140;6.296;2023-04-05T17:01:03;100873.19;;;14.11;54.67
18813;BME280;9534;51.140;6.296;2023-04-05T17:05:07;100869.72;;;13.73;55.75
18813;BME280;9534;51.140;6.296;2023-04-05T17:09:11;100870.97;;;13.22;57.01
18813;BME280;9534;51.140;6.296;2023-04-05T17:13:14;100868.09;;;13.10;55.89
18813;BME280;9534;51.140;6.296;2023-04-05T17:17:18;100862.97;;;13.14;59.04
18813;BME280;9534;51.140;6.296;2023-04-05T17:21:22;100865.31;;;12.73;60.95
18813;BME280;9534;51.140;6.296;2023-04-05T17:25:28;100862.13;;;12.76;59.07
18813;BME280;9534;51.140;6.296;2023-04-05T17:29:32;100865.16;;;13.05;59.89
18813;BME280;9534;51.140;6.296;2023-04-05T17:33:35;100863.69;;;12.59;62.92
18813;BME280;9534;51.140;6.296;2023-04-05T17:37:38;100861.69;;;12.29;63.27
18813;BME280;9534;51.140;6.296;2023-04-05T17:41:42;100864.22;;;12.17;61.21
18813;BME280;9534;51.140;6.296;2023-04-05T17:45:46;100871.03;;;11.56;63.51
18813;BME280;9534;51.140;6.296;2023-04-05T17:49:50;100858.78;;;11.01;73.24
18813;BME280;9534;51.140;6.296;2023-04-05T17:53:55;100861.63;;;10.67;73.07
18813;BME280;9534;51.140;6.296;2023-04-05T17:58:00;100860.63;;;10.34;77.58
18813;BME280;9534;51.140;6.296;2023-04-05T18:02:04;100852.44;;;10.00;80.85
18813;BME280;9534;51.140;6.296;2023-04-05T18:06:07;100854.50;;;9.64;100.00
18813;BME280;9534;51.140;6.296;2023-04-05T18:10:11;100848.44;;;9.41;100.00
18813;BME280;9534;51.140;6.296;2023-04-05T18:14:15;100854.06;;;9.12;100.00
18813;BME280;9534;51.140;6.296;2023-04-05T18:18:18;100849.69;;;8.76;100.00
18813;BME280;9534;51.140;6.296;2023-04-05T18:22:22;100857.84;;;8.55;100.00
18813;BME280;9534;51.140;6.296;2023-04-05T18:26:25;100857.63;;;8.36;100.00
18813;BME280;9534;51.140;6.296;2023-04-05T18:30:30;100858.53;;;8.14;100.00
18813;BME280;9534;51.140;6.296;2023-04-05T18:34:34;100856.94;;;8.05;100.00
18813;BME280;9534;51.140;6.296;2023-04-05T18:38:38;100865.31;;;8.18;100.00
18813;BME280;9534;51.140;6.296;2023-04-05T18:42:41;100873.00;;;8.00;100.00
18813;BME280;9534;51.140;6.296;2023-04-05T18:46:46;100870.09;;;7.87;100.00
18813;BME280;9534;51.140;6.296;2023-04-05T18:50:50;100865.69;;;7.71;100.00
18813;BME280;9534;51.140;6.296;2023-04-05T18:54:54;100879.00;;;7.52;100.00
18813;BME280;9534;51.140;6.296;2023-04-05T18:58:59;100879.91;;;7.44;100.00
18813;BME280;9534;51.140;6.296;2023-04-05T19:03:05;100887.28;;;7.22;100.00
18813;BME280;9534;51.140;6.296;2023-04-05T19:07:09;100886.16;;;7.08;100.00
18813;BME280;9534;51.140;6.296;2023-04-05T19:11:12;100884.22;;;6.94;100.00
18813;BME280;9534;51.140;6.296;2023-04-05T19:15:15;100887.75;;;6.80;100.00
18813;BME280;9534;51.140;6.296;2023-04-05T19:19:20;100889.19;;;6.68;100.00
18813;BME280;9534;51.140;6.296;2023-04-05T19:23:23;100881.94;;;6.53;100.00
18813;BME280;9534;51.140;6.296;2023-04-05T19:27:27;100895.78;;;6.43;100.00
18813;BME280;9534;51.140;6.296;2023-04-05T19:31:34;100885.28;;;6.32;100.00
18813;BME280;9534;51.140;6.296;2023-04-05T19:35:39;100885.28;;;6.32;100.00
18813;BME280;9534;51.140;6.296;2023-04-05T19:39:42;100889.03;;;6.31;100.00
18813;BME280;9534;51.140;6.296;2023-04-05T19:43:46;100886.56;;;6.14;100.00
18813;BME280;9534;51.140;6.296;2023-04-05T19:47:52;100882.88;;;6.07;100.00
18813;BME280;9534;51.140;6.296;2023-04-05T19:51:56;100883.34;;;6.11;100.00
18813;BME280;9534;51.140;6.296;2023-04-05T19:56:00;100886.28;;;5.85;100.00
18813;BME280;9534;51.140;6.296;2023-04-05T20:00:06;100873.75;;;5.76;100.00
18813;BME280;9534;51.140;6.296;2023-04-05T20:04:30;100878.38;;;5.60;100.00
18813;BME280;9534;51.140;6.296;2023-04-05T20:08:37;100884.19;;;5.41;100.00
18813;BME280;9534;51.140;6.296;2023-04-05T20:12:41;100870.47;;;5.26;100.00
18813;BME280;9534;51.140;6.296;2023-04-05T20:16:44;100872.69;;;5.07;100.00
18813;BME280;9534;51.140;6.296;2023-04-05T20:20:52;100878.78;;;4.93;100.00
18813;BME280;9534;51.140;6.296;2023-04-05T20:24:57;100869.28;;;4.81;100.00
18813;BME280;9534;51.140;6.296;2023-04-05T20:29:01;100861.13;;;4.73;100.00
18813;BME280;9534;51.140;6.296;2023-04-05T20:33:05;100860.09;;;4.66;100.00
18813;BME280;9534;51.140;6.296;2023-04-05T20:37:08;100861.16;;;4.81;100.00
18813;BME280;9534;51.140;6.296;2023-04-05T20:41:14;100859.75;;;4.61;100.00
18813;BME280;9534;51.140;6.296;2023-04-05T20:45:18;100855.19;;;4.62;100.00
18813;BME280;9534;51.140;6.296;2023-04-05T20:49:22;100850.25;;;4.49;100.00
18813;BME280;9534;51.140;6.296;2023-04-05T20:53:26;100852.94;;;4.33;100.00
18813;BME280;9534;51.140;6.296;2023-04-05T20:57:30;100841.09;;;4.42;100.00
18813;BME280;9534;51.140;6.296;2023-04-05T21:01:34;100836.31;;;4.20;100.00
18813;BME280;9534;51.140;6.296;2023-04-05T21:05:39;100834.63;;;4.19;100.00
18813;BME280;9534;51.140;6.296;2023-04-05T21:09:42;100832.72;;;4.12;100.00
18813;BME280;9534;51.140;6.296;2023-04-05T21:13:46;100835.06;;;4.07;100.00
18813;BME280;9534;51.140;6.296;2023-04-05T21:17:49;100831.56;;;4.22;100.00
18813;BME280;9534;51.140;6.296;2023-04-05T21:21:53;100833.38;;;4.06;100.00
18813;BME280;9534;51.140;6.296;2023-04-05T21:25:57;100834.25;;;4.14;100.00
18813;BME280;9534;51.140;6.296;2023-04-05T21:30:01;100840.19;;;4.18;100.00
18813;BME280;9534;51.140;6.296;2023-04-05T21:34:04;100821.63;;;3.89;100.00
18813;BME280;9534;51.140;6.296;2023-04-05T21:38:08;100837.63;;;3.67;100.00
18813;BME280;9534;51.140;6.296;2023-04-05T21:42:11;100830.25;;;3.52;100.00